Terminal Aerodrome Forecast
Issued by NWS Buffalo, NY

Home | Current Version | Previous Version | Text Only | Print | Product List | Glossary On
Versions: 1 2 3 4 5 6 7 8 9 10 11 12 13 14 15 16 17 18 19 20 21 22 23 24 25 26
000
FTUS41 KBUF 262300 CCA
TAFROC
TAF COR
KROC 262359Z 2700/2724 03010KT 3SM -SN OVC015
     FM270200 01005KT P6SM VCSH OVC015
     FM270400 36005KT 3SM -SHSN OVC008
     FM271000 31008KT P6SM BKN025=

USA.gov is the U.S. government's official web portal to all federal, state and local government web resources and services.